Time;durP1;ratioP1;P1;durP2;ratioP2;P2;SDS_P1;SDS_P2;PMS_P1;PMS_P2;Temp;Humidity;BMP_temperature;BMP_pressure;BME280_temperature;BME280_humidity;BME280_pressure;Samples;Min_cycle;Max_cycle;Signal;HPM_P1;HPM_P2
2021/11/28 00:01:12;;;;;;;78.53;19.75;;;3.00;99.90;;;;;;5148731;27;20168;-83
2021/11/28 00:03:38;;;;;;;76.47;20.80;;;3.00;99.90;;;;;;5166965;27;20165;-83
2021/11/28 00:06:09;;;;;;;78.47;20.07;;;3.00;99.90;;;;;;5148714;27;20173;-83
2021/11/28 00:14:13;;;;;;;75.90;18.80;;;3.00;99.90;;;;;;5167927;27;20233;-83
2021/11/28 00:16:37;;;;;;;78.70;18.25;;;3.00;99.90;;;;;;5166589;27;20639;-83
2021/11/28 00:19:05;;;;;;;80.05;22.20;;;3.00;99.90;;;;;;5166968;27;20185;-83
2021/11/28 00:21:31;;;;;;;76.75;21.23;;;2.90;99.90;;;;;;5149947;27;20194;-83
2021/11/28 00:23:57;;;;;;;78.95;22.80;;;2.90;99.90;;;;;;5167326;27;20161;-83
2021/11/28 00:26:23;;;;;;;83.07;25.53;;;2.90;99.90;;;;;;5167244;27;20171;-83
2021/11/28 00:28:49;;;;;;;81.10;29.23;;;2.90;99.90;;;;;;5166799;27;20438;-83
2021/11/28 00:31:14;;;;;;;81.17;27.33;;;2.90;99.90;;;;;;5148812;27;20232;-83
2021/11/28 00:33:40;;;;;;;81.80;30.07;;;2.80;99.90;;;;;;5148327;27;20417;-83
2021/11/28 00:36:06;;;;;;;84.00;27.60;;;2.90;99.90;;;;;;5148615;27;20238;-83
2021/11/28 00:38:31;;;;;;;80.40;26.77;;;3.00;99.90;;;;;;5167720;27;20189;-83
2021/11/28 00:40:57;;;;;;;83.27;31.20;;;3.00;99.90;;;;;;5167219;27;20401;-84
2021/11/28 00:43:23;;;;;;;81.67;29.97;;;3.00;99.90;;;;;;5163127;27;20526;-83
2021/11/28 00:45:49;;;;;;;83.32;29.63;;;3.00;99.90;;;;;;5166594;27;20475;-83
2021/11/28 00:48:15;;;;;;;79.35;25.27;;;3.10;99.90;;;;;;5166633;27;20189;-83
2021/11/28 00:50:45;;;;;;;80.23;28.07;;;3.10;99.90;;;;;;5166761;27;20219;-83
2021/11/28 00:53:13;;;;;;;78.70;25.23;;;3.10;99.90;;;;;;5148020;27;20244;-84
2021/11/28 00:55:39;;;;;;;78.93;26.42;;;3.10;99.90;;;;;;5166856;27;20157;-84
2021/11/28 00:58:05;;;;;;;90.00;28.90;;;3.10;99.90;;;;;;5166644;27;20209;-83
2021/11/28 01:00:31;;;;;;;86.30;29.27;;;3.10;99.90;;;;;;5166865;27;20181;-83
2021/11/28 01:02:57;;;;;;;83.33;28.27;;;3.10;99.90;;;;;;5166540;27;21001;-83
2021/11/28 01:05:23;;;;;;;83.17;27.13;;;3.10;99.90;;;;;;5166900;27;20409;-84
2021/11/28 01:07:49;;;;;;;80.80;27.37;;;3.20;99.90;;;;;;5147601;27;20444;-83
2021/11/28 01:10:14;;;;;;;83.37;28.77;;;3.20;99.90;;;;;;5166222;27;20180;-84
2021/11/28 01:12:41;;;;;;;81.93;28.90;;;3.20;99.90;;;;;;5166213;27;20157;-84
2021/11/28 01:15:08;;;;;;;81.53;31.83;;;3.10;99.90;;;;;;5147364;27;20459;-83
2021/11/28 01:17:34;;;;;;;86.05;40.03;;;3.10;99.90;;;;;;5161864;27;20172;-83
2021/11/28 01:20:03;;;;;;;86.50;32.88;;;3.00;99.90;;;;;;5161978;27;20547;-84
2021/11/28 01:22:29;;;;;;;83.10;32.58;;;3.00;99.90;;;;;;5161725;27;20168;-83
2021/11/28 01:24:54;;;;;;;83.87;32.40;;;3.10;99.90;;;;;;5161870;27;20161;-83
2021/11/28 01:27:21;;;;;;;85.97;37.40;;;3.10;99.90;;;;;;5144040;27;20478;-83
2021/11/28 01:29:47;;;;;;;90.60;45.25;;;3.10;99.90;;;;;;5143581;27;20228;-83
2021/11/28 01:32:12;;;;;;;87.78;38.85;;;3.10;99.90;;;;;;5165719;27;20165;-84
2021/11/28 01:34:38;;;;;;;82.00;29.77;;;3.20;99.90;;;;;;5165242;27;20169;-83
2021/11/28 01:37:05;;;;;;;84.70;37.43;;;3.30;99.90;;;;;;5165031;27;20624;-83
2021/11/28 01:39:32;;;;;;;87.10;35.03;;;3.30;99.90;;;;;;5164259;27;20426;-83
2021/11/28 01:41:57;;;;;;;85.03;36.47;;;3.20;99.90;;;;;;5165500;27;20616;-83
2021/11/28 01:44:23;;;;;;;83.27;30.13;;;3.30;99.90;;;;;;5164944;27;20245;-84
2021/11/28 01:46:49;;;;;;;81.40;27.40;;;3.30;99.90;;;;;;5165077;27;20192;-84
2021/11/28 01:49:15;;;;;;;78.70;23.20;;;3.30;99.90;;;;;;5165338;27;20226;-84
2021/11/28 01:51:42;;;;;;;82.80;32.22;;;3.30;99.90;;;;;;5165640;27;20437;-84
2021/11/28 01:54:13;;;;;;;84.72;37.88;;;3.30;99.90;;;;;;5208554;22;20226;-84
2021/11/28 01:56:41;;;;;;;85.35;36.80;;;3.20;99.90;;;;;;5140667;27;20138;-83
2021/11/28 01:59:07;;;;;;;82.15;35.45;;;3.30;99.90;;;;;;5146015;27;20209;-83
2021/11/28 02:01:34;;;;;;;83.68;35.95;;;3.20;99.90;;;;;;5143836;27;20173;-83
2021/11/28 02:04:01;;;;;;;82.80;35.80;;;3.30;99.90;;;;;;5164568;27;20516;-85
2021/11/28 02:06:27;;;;;;;86.25;32.72;;;3.30;99.90;;;;;;5161272;27;20586;-84
2021/11/28 02:08:54;;;;;;;82.90;32.37;;;3.30;99.90;;;;;;5161419;27;20226;-84
2021/11/28 02:11:19;;;;;;;82.85;31.20;;;3.30;99.90;;;;;;5160975;27;20399;-83
2021/11/28 02:13:45;;;;;;;91.37;42.00;;;3.30;99.90;;;;;;5160748;27;20237;-83
2021/11/28 02:16:12;;;;;;;84.87;39.67;;;3.20;99.90;;;;;;5142443;27;20206;-83
2021/11/28 02:18:38;;;;;;;86.88;37.78;;;3.10;99.90;;;;;;5159871;27;20498;-83
2021/11/28 02:21:06;;;;;;;83.63;29.73;;;3.20;99.90;;;;;;5160244;27;20614;-84
2021/11/28 02:23:32;;;;;;;83.88;39.15;;;3.30;99.90;;;;;;5161210;27;20409;-84
2021/11/28 02:26:01;;;;;;;96.90;52.55;;;3.20;99.90;;;;;;5160480;27;20161;-84
2021/11/28 02:28:28;;;;;;;86.00;39.85;;;3.20;99.90;;;;;;5160911;27;20246;-84
2021/11/28 02:30:54;;;;;;;86.97;40.22;;;3.30;99.90;;;;;;5160929;27;20166;-84
2021/11/28 02:33:20;;;;;;;87.35;41.05;;;3.20;99.90;;;;;;5142310;27;20577;-84
2021/11/28 02:35:46;;;;;;;93.47;53.97;;;3.20;99.90;;;;;;5160384;27;20157;-84
2021/11/28 02:38:12;;;;;;;84.03;39.40;;;3.10;99.90;;;;;;5141764;27;20410;-84
2021/11/28 02:40:43;;;;;;;84.53;37.58;;;3.10;99.90;;;;;;5180307;22;20210;-84
2021/11/28 02:43:09;;;;;;;83.57;38.03;;;3.20;99.90;;;;;;5119477;28;20146;-83
2021/11/28 02:45:35;;;;;;;89.70;40.40;;;3.20;99.90;;;;;;5118776;28;20525;-83
2021/11/28 02:48:04;;;;;;;93.13;54.57;;;3.10;99.90;;;;;;5119043;28;20198;-83
2021/11/28 02:50:29;;;;;;;87.60;45.15;;;3.00;99.90;;;;;;5119127;28;20447;-84
2021/11/28 02:53:02;;;;;;;96.57;61.60;;;3.10;99.90;;;;;;5119681;28;20188;-83
2021/11/28 02:55:37;;;;;;;90.50;56.42;;;3.00;99.90;;;;;;5119941;28;20174;-83
2021/11/28 02:58:04;;;;;;;85.85;44.50;;;3.10;99.90;;;;;;5118607;28;20166;-83
2021/11/28 03:00:33;;;;;;;94.43;55.30;;;3.20;99.90;;;;;;5100954;28;20193;-83
2021/11/28 03:02:59;;;;;;;107.45;77.78;;;3.20;99.90;;;;;;5100268;28;20166;-83
2021/11/28 03:05:25;;;;;;;102.67;79.47;;;3.20;99.90;;;;;;5119511;28;20567;-83
2021/11/28 03:07:51;;;;;;;92.00;60.45;;;3.20;99.90;;;;;;5119462;28;20233;-83
2021/11/28 03:10:32;;;;;;;99.80;73.00;;;3.30;99.90;;;;;;5119008;28;20182;-83
2021/11/28 03:13:00;;;;;;;100.40;76.00;;;3.20;99.90;;;;;;5118803;28;20215;-83
2021/11/28 03:15:26;;;;;;;101.68;80.57;;;3.30;99.90;;;;;;5120202;28;20158;-83
2021/11/28 03:17:52;;;;;;;102.93;80.85;;;3.20;99.90;;;;;;5119122;28;20194;-83
2021/11/28 03:20:18;;;;;;;106.70;92.20;;;3.20;99.90;;;;;;5118558;28;20546;-82
2021/11/28 03:22:51;;;;;;;96.03;72.55;;;3.20;99.90;;;;;;5118815;28;20404;-83
2021/11/28 03:25:20;;;;;;;102.32;82.85;;;3.20;99.90;;;;;;5119149;28;20175;-83
2021/11/28 03:27:46;;;;;;;104.28;90.97;;;3.20;99.90;;;;;;5118885;28;20186;-83
2021/11/28 03:30:14;;;;;;;91.68;65.85;;;3.10;99.90;;;;;;5120000;28;20541;-82
2021/11/28 03:32:40;;;;;;;104.03;87.00;;;3.10;99.90;;;;;;5123203;28;20201;-82
2021/11/28 03:35:07;;;;;;;98.85;75.43;;;3.10;99.90;;;;;;5123291;28;20248;-82
2021/11/28 03:37:33;;;;;;;102.70;82.38;;;3.20;99.90;;;;;;5122939;28;20609;-82
2021/11/28 03:40:00;;;;;;;101.65;87.13;;;3.30;99.90;;;;;;5129256;28;20186;-84
2021/11/28 03:42:26;;;;;;;90.95;65.60;;;3.30;99.90;;;;;;5123856;28;20582;-84
2021/11/28 03:44:52;;;;;;;99.28;62.03;;;3.40;99.90;;;;;;5122370;28;20163;-84
2021/11/28 03:47:19;;;;;;;92.13;63.58;;;3.40;99.90;;;;;;5122474;28;20190;-84
2021/11/28 03:49:45;;;;;;;98.35;70.90;;;3.30;99.90;;;;;;5122178;28;20186;-84
2021/11/28 03:52:11;;;;;;;101.93;79.50;;;3.40;99.90;;;;;;5122913;28;20238;-84
2021/11/28 03:54:37;;;;;;;98.95;71.60;;;3.40;99.90;;;;;;5122524;28;20515;-85
2021/11/28 03:57:04;;;;;;;94.30;65.22;;;3.40;99.90;;;;;;5103617;28;20159;-84
2021/11/28 03:59:30;;;;;;;111.70;83.55;;;3.40;99.90;;;;;;5103441;28;20186;-83
2021/11/28 04:01:57;;;;;;;90.40;59.97;;;3.40;99.90;;;;;;5103997;28;20170;-84
2021/11/28 04:04:22;;;;;;;101.60;85.60;;;3.40;99.90;;;;;;5122536;28;20793;-84
2021/11/28 04:06:51;;;;;;;100.50;78.93;;;3.40;1.00;;;;;;5122628;28;20215;-84
2021/11/28 04:09:16;;;;;;;93.53;64.20;;;3.40;1.00;;;;;;5103745;28;20201;-84
2021/11/28 04:11:45;;;;;;;92.40;63.37;;;3.40;1.00;;;;;;5103506;28;20170;-84
2021/11/28 04:14:11;;;;;;;106.43;91.25;;;3.30;1.00;;;;;;5103376;28;20159;-82
2021/11/28 04:16:36;;;;;;;97.70;69.80;;;3.30;1.00;;;;;;5103445;28;20162;-83
2021/11/28 04:19:02;;;;;;;94.20;68.03;;;3.20;1.00;;;;;;5122077;28;20672;-85
2021/11/28 04:21:28;;;;;;;99.72;72.28;;;3.20;99.90;;;;;;5121918;28;20173;-84
2021/11/28 04:23:55;;;;;;;104.97;90.97;;;3.20;99.90;;;;;;5122055;28;20211;-84
2021/11/28 04:26:21;;;;;;;105.57;85.80;;;3.20;1.00;;;;;;5121683;28;20170;-83
2021/11/28 04:28:47;;;;;;;102.47;86.55;;;3.20;1.00;;;;;;5103660;28;20208;-86
2021/11/28 04:31:14;;;;;;;102.63;78.20;;;3.20;32.50;;;;;;5121842;28;20211;-85
2021/11/28 04:33:39;;;;;;;105.13;82.47;;;3.20;1.00;;;;;;5122454;28;20633;-85
2021/11/28 04:36:06;;;;;;;96.37;71.70;;;3.30;1.00;;;;;;5121913;28;20170;-84
2021/11/28 04:38:36;;;;;;;93.75;72.35;;;3.30;1.00;;;;;;5122150;28;20926;-84
2021/11/28 04:41:01;;;;;;;106.13;94.00;;;3.20;1.00;;;;;;5101648;28;20186;-83
2021/11/28 04:43:27;;;;;;;98.10;83.73;;;3.20;1.00;;;;;;5102658;28;20166;-83
2021/11/28 04:45:53;;;;;;;97.73;82.10;;;3.20;99.90;;;;;;5121121;28;20571;-82
2021/11/28 04:48:18;;;;;;;101.20;89.57;;;3.20;99.90;;;;;;5102582;28;20208;-83
2021/11/28 04:50:44;;;;;;;92.50;69.20;;;3.20;99.90;;;;;;5121049;28;20624;-85
2021/11/28 04:53:10;;;;;;;103.40;85.53;;;3.20;1.00;;;;;;5121607;28;20163;-85
2021/11/28 04:55:36;;;;;;;108.67;96.47;;;3.20;99.90;;;;;;5102908;28;20170;-84
2021/11/28 04:58:03;;;;;;;111.15;97.50;;;3.20;1.00;;;;;;5120952;28;20396;-84
2021/11/28 05:00:30;;;;;;;95.43;76.57;;;3.20;1.00;;;;;;5120683;28;20214;-85
2021/11/28 05:02:57;;;;;;;101.93;75.18;;;3.20;1.00;;;;;;5102574;28;20189;-85
2021/11/28 05:05:24;;;;;;;104.78;86.75;;;3.20;1.00;;;;;;5121265;28;20165;-85
2021/11/28 05:07:51;;;;;;;105.22;81.40;;;3.20;99.90;;;;;;5121293;28;20249;-84
2021/11/28 05:10:17;;;;;;;97.93;76.80;;;3.20;1.00;;;;;;5102689;28;20231;-85
2021/11/28 05:12:43;;;;;;;93.57;70.57;;;3.20;99.90;;;;;;5103466;28;20159;-84
2021/11/28 05:15:11;;;;;;;124.45;112.25;;;3.20;71.70;;;;;;5102836;28;20404;-85
2021/11/28 05:17:37;;;;;;;97.03;80.80;;;3.20;1.00;;;;;;5103490;28;20174;-84
2021/11/28 05:20:08;;;;;;;110.23;98.77;;;3.20;1.00;;;;;;5122521;28;20205;-84
2021/11/28 05:22:34;;;;;;;96.95;78.57;;;3.20;99.90;;;;;;5121045;28;20147;-84
2021/11/28 05:25:07;;;;;;;101.82;90.57;;;3.30;99.90;;;;;;5120477;28;20161;-84
2021/11/28 05:27:32;;;;;;;102.35;82.75;;;3.20;1.00;;;;;;5102664;28;20185;-85
2021/11/28 05:29:58;;;;;;;134.30;121.60;;;3.20;99.90;;;;;;5120664;28;20573;-85
2021/11/28 05:32:25;;;;;;;99.57;88.60;;;3.20;99.90;;;;;;5102602;28;20630;-85
2021/11/28 05:34:51;;;;;;;106.95;94.75;;;3.30;99.90;;;;;;5102849;28;20166;-84
2021/11/28 05:37:17;;;;;;;117.97;106.35;;;3.30;99.90;;;;;;5120433;28;20167;-84
2021/11/28 05:39:44;;;;;;;99.80;81.20;;;3.30;99.90;;;;;;5120754;28;20194;-84
2021/11/28 05:42:10;;;;;;;105.15;89.65;;;3.30;99.90;;;;;;5120185;28;20246;-84
2021/11/28 05:44:36;;;;;;;110.90;99.10;;;3.30;99.90;;;;;;5120449;28;20641;-84
2021/11/28 05:47:02;;;;;;;102.75;91.72;;;3.30;99.90;;;;;;5101722;28;20162;-84
2021/11/28 05:49:28;;;;;;;102.53;90.93;;;3.40;99.90;;;;;;5101857;28;20201;-84
2021/11/28 05:51:54;;;;;;;98.90;88.07;;;3.40;99.90;;;;;;5101514;28;20412;-84
2021/11/28 05:54:20;;;;;;;110.35;99.18;;;3.30;99.90;;;;;;5102070;28;20163;-84
2021/11/28 05:56:45;;;;;;;105.87;93.37;;;3.40;99.90;;;;;;5101910;28;20228;-83
2021/11/28 05:59:11;;;;;;;101.90;89.53;;;3.40;99.90;;;;;;5119706;28;20220;-84
2021/11/28 06:01:37;;;;;;;110.40;98.37;;;3.40;99.90;;;;;;5101821;28;20169;-84
2021/11/28 06:04:03;;;;;;;99.50;86.73;;;3.40;99.90;;;;;;5119996;28;20170;-84
2021/11/28 06:06:28;;;;;;;122.40;109.88;;;3.30;99.90;;;;;;5120235;28;20169;-84
2021/11/28 06:08:55;;;;;;;105.43;92.53;;;3.40;99.90;;;;;;5101112;28;20681;-84
2021/11/28 06:11:23;;;;;;;105.45;91.53;;;3.40;99.90;;;;;;5120469;28;20245;-84
2021/11/28 06:13:49;;;;;;;125.75;112.63;;;3.40;99.90;;;;;;5119339;28;20155;-84
2021/11/28 06:16:15;;;;;;;108.73;96.70;;;3.30;99.90;;;;;;5119379;28;20158;-84
2021/11/28 06:18:40;;;;;;;106.90;95.27;;;3.30;99.90;;;;;;5119393;28;20178;-85
2021/11/28 06:21:06;;;;;;;111.60;99.43;;;3.30;99.90;;;;;;5119483;28;20411;-84
2021/11/28 06:23:32;;;;;;;132.17;118.97;;;3.40;99.90;;;;;;5119534;28;20162;-84
2021/11/28 06:25:57;;;;;;;108.00;96.23;;;3.40;99.90;;;;;;5119636;28;20231;-84
2021/11/28 06:28:23;;;;;;;109.37;97.63;;;3.40;99.90;;;;;;5119785;28;20323;-84
2021/11/28 06:30:49;;;;;;;121.43;108.53;;;3.40;99.90;;;;;;5119499;28;20424;-84
2021/11/28 06:33:16;;;;;;;119.33;106.80;;;3.30;99.90;;;;;;5119219;28;20264;-84
2021/11/28 06:35:41;;;;;;;131.93;118.63;;;3.30;99.90;;;;;;5118914;28;20404;-83
2021/11/28 06:38:07;;;;;;;109.77;93.33;;;3.40;99.90;;;;;;5100418;28;20177;-84
2021/11/28 06:40:33;;;;;;;120.70;106.60;;;3.40;99.90;;;;;;5100569;28;20214;-84
2021/11/28 06:43:02;;;;;;;105.03;85.40;;;3.40;99.90;;;;;;5118914;28;20163;-84
2021/11/28 06:45:28;;;;;;;115.05;102.95;;;3.40;99.90;;;;;;5118530;28;20185;-84
2021/11/28 06:47:55;;;;;;;101.70;89.27;;;3.40;99.90;;;;;;5119510;28;20565;-84
2021/11/28 06:50:21;;;;;;;99.82;87.35;;;3.40;99.90;;;;;;5118718;28;20181;-85
2021/11/28 06:52:47;;;;;;;109.80;98.25;;;3.40;99.90;;;;;;5101174;28;20626;-84
2021/11/28 06:55:19;;;;;;;126.47;113.97;;;3.40;99.90;;;;;;5120847;28;20173;-84
2021/11/28 06:57:44;;;;;;;105.80;94.63;;;3.40;99.90;;;;;;5121145;28;20772;-84
2021/11/28 07:00:11;;;;;;;124.87;112.40;;;3.40;99.90;;;;;;5118774;28;20189;-84
2021/11/28 07:02:37;;;;;;;117.18;104.75;;;3.40;99.90;;;;;;5118686;28;20163;-85
2021/11/28 07:05:03;;;;;;;130.70;118.30;;;3.50;99.90;;;;;;5099375;28;20167;-84
2021/11/28 07:07:29;;;;;;;98.65;84.25;;;3.50;99.90;;;;;;5118385;28;20436;-84
2021/11/28 07:09:57;;;;;;;113.63;102.03;;;3.50;99.90;;;;;;5100343;28;20185;-84
2021/11/28 07:12:26;;;;;;;108.05;96.60;;;3.50;99.90;;;;;;5118452;28;20159;-84
2021/11/28 07:14:52;;;;;;;118.63;106.85;;;3.50;99.90;;;;;;5118299;28;20162;-85
2021/11/28 07:17:18;;;;;;;141.77;128.57;;;3.40;99.90;;;;;;5118260;28;20179;-84
2021/11/28 07:19:44;;;;;;;98.47;85.27;;;3.40;99.90;;;;;;5117863;28;20182;-84
2021/11/28 07:22:12;;;;;;;144.60;131.67;;;3.40;1.00;;;;;;5099994;28;20495;-84
2021/11/28 07:24:38;;;;;;;120.32;108.15;;;3.40;6.20;;;;;;5118069;28;20243;-84
2021/11/28 07:27:04;;;;;;;110.10;98.30;;;3.40;66.10;;;;;;5099918;28;20163;-84
2021/11/28 07:29:30;;;;;;;125.97;113.93;;;3.50;99.90;;;;;;5117696;28;20503;-84
2021/11/28 07:31:55;;;;;;;119.90;107.63;;;3.50;99.90;;;;;;5118280;28;20193;-84
2021/11/28 07:34:21;;;;;;;113.43;101.87;;;3.50;1.00;;;;;;5117929;28;20529;-84
2021/11/28 07:36:47;;;;;;;136.13;123.07;;;3.50;1.00;;;;;;5099881;28;20633;-84
2021/11/28 07:39:15;;;;;;;117.57;103.43;;;3.50;1.00;;;;;;5118291;28;20186;-84
2021/11/28 07:41:41;;;;;;;128.38;115.72;;;3.50;1.00;;;;;;5118692;28;20241;-84
2021/11/28 07:44:07;;;;;;;127.05;114.88;;;3.50;30.40;;;;;;5100962;28;20182;-82
2021/11/28 07:46:33;;;;;;;121.83;109.00;;;3.60;99.90;;;;;;5096767;28;20637;-82
2021/11/28 07:48:59;;;;;;;116.33;104.47;;;3.60;1.00;;;;;;5096228;28;20198;-82
2021/11/28 07:51:25;;;;;;;132.53;119.93;;;3.60;1.00;;;;;;5114982;28;20175;-83
2021/11/28 07:53:56;;;;;;;125.35;113.38;;;3.70;1.00;;;;;;5277595;22;20253;-82
2021/11/28 07:56:22;;;;;;;109.05;97.55;;;3.60;99.90;;;;;;5098842;28;20533;-83
2021/11/28 07:58:49;;;;;;;129.50;117.22;;;3.70;99.90;;;;;;5101787;28;20189;-83
2021/11/28 08:01:15;;;;;;;124.85;112.80;;;3.70;99.90;;;;;;5119948;28;20162;-83
2021/11/28 08:03:44;;;;;;;107.90;96.63;;;3.80;99.90;;;;;;5120048;28;20166;-83
2021/11/28 08:06:10;;;;;;;107.78;96.20;;;3.70;99.90;;;;;;5138411;28;20395;-83
2021/11/28 08:08:35;;;;;;;128.63;115.90;;;3.80;99.90;;;;;;5138838;28;20221;-84
2021/11/28 08:11:01;;;;;;;132.83;120.13;;;3.80;99.90;;;;;;5120380;28;20426;-83
2021/11/28 08:13:27;;;;;;;124.07;111.85;;;3.80;99.90;;;;;;5137999;28;20187;-83
2021/11/28 08:15:53;;;;;;;114.00;102.10;;;3.80;99.90;;;;;;5121064;27;20162;-84
2021/11/28 08:18:19;;;;;;;117.18;105.60;;;3.80;99.90;;;;;;5123714;27;20828;-83
2021/11/28 08:20:45;;;;;;;137.27;124.87;;;3.90;99.90;;;;;;5141509;27;20182;-83
2021/11/28 08:23:11;;;;;;;146.43;133.87;;;3.90;99.90;;;;;;5123773;27;20849;-83
2021/11/28 08:25:37;;;;;;;128.47;116.27;;;3.90;99.90;;;;;;5142397;27;20403;-84
2021/11/28 08:28:08;;;;;;;117.67;106.03;;;3.90;99.90;;;;;;5141996;27;20582;-83
2021/11/28 08:30:38;;;;;;;130.82;118.78;;;4.00;99.90;;;;;;5142872;27;20416;-83
2021/11/28 08:33:05;;;;;;;114.90;102.88;;;4.00;99.90;;;;;;5126550;27;20157;-83
2021/11/28 08:35:31;;;;;;;145.27;132.32;;;4.00;99.90;;;;;;5123661;27;20169;-83
2021/11/28 08:37:57;;;;;;;138.35;125.97;;;4.00;99.90;;;;;;5142703;27;20166;-83
2021/11/28 08:40:24;;;;;;;126.30;114.25;;;4.00;99.90;;;;;;5124045;27;20193;-83
2021/11/28 08:42:50;;;;;;;115.43;104.07;;;4.00;99.90;;;;;;5141834;27;20641;-83
2021/11/28 08:45:19;;;;;;;128.60;116.23;;;4.00;99.90;;;;;;5123366;27;20242;-84
2021/11/28 08:47:47;;;;;;;110.95;99.70;;;4.00;99.90;;;;;;5122992;27;20443;-83
2021/11/28 08:50:16;;;;;;;131.18;119.05;;;4.00;99.90;;;;;;5122816;27;20258;-83
2021/11/28 08:52:45;;;;;;;146.20;132.93;;;4.00;99.90;;;;;;5123091;27;20553;-83
2021/11/28 08:55:12;;;;;;;132.45;120.05;;;4.00;99.90;;;;;;5141961;27;20169;-83
2021/11/28 08:57:38;;;;;;;153.95;140.60;;;4.10;99.90;;;;;;5121277;27;20227;-85
2021/11/28 09:00:06;;;;;;;122.70;110.77;;;4.10;99.90;;;;;;5141442;27;20185;-85
2021/11/28 09:02:32;;;;;;;130.07;117.80;;;4.10;99.90;;;;;;5141709;27;20201;-85
2021/11/28 09:05:01;;;;;;;118.50;106.57;;;4.10;99.90;;;;;;5123552;27;20170;-85
2021/11/28 09:07:30;;;;;;;131.52;119.45;;;4.20;99.90;;;;;;5141082;27;20837;-85
2021/11/28 09:09:56;;;;;;;121.93;110.00;;;4.20;99.90;;;;;;5140786;27;20182;-85
2021/11/28 09:12:22;;;;;;;142.60;129.77;;;4.20;99.90;;;;;;5141202;27;20242;-84
2021/11/28 09:14:50;;;;;;;114.73;103.40;;;4.20;99.90;;;;;;5140955;27;20189;-86
2021/11/28 09:17:16;;;;;;;136.65;124.45;;;4.20;99.90;;;;;;5140596;27;20399;-84
2021/11/28 09:22:10;;;;;;;161.05;147.63;;;4.40;99.90;;;;;;5140581;27;20255;-85
2021/11/28 09:24:36;;;;;;;157.57;144.40;;;4.40;99.90;;;;;;5141057;27;20169;-84
2021/11/28 09:27:06;;;;;;;143.88;130.95;;;4.50;99.90;;;;;;5140019;27;20158;-84
2021/11/28 09:29:37;;;;;;;145.07;132.35;;;4.50;51.10;;;;;;5105642;27;20235;-82
2021/11/28 09:32:06;;;;;;;152.05;139.02;;;4.50;91.70;;;;;;5122071;27;20154;-84
2021/11/28 09:34:40;;;;;;;176.23;162.10;;;4.50;11.20;;;;;;5140309;27;20221;-83
2021/11/28 09:37:08;;;;;;;137.55;125.13;;;4.60;19.70;;;;;;5140120;27;20183;-84
2021/11/28 09:39:35;;;;;;;130.80;118.55;;;4.60;1.00;;;;;;5121690;27;20185;-84
2021/11/28 09:42:09;;;;;;;144.90;131.77;;;4.60;1.00;;;;;;5140130;27;20160;-84
2021/11/28 09:44:38;;;;;;;113.45;101.20;;;4.60;99.90;;;;;;5140835;27;20162;-83
2021/11/28 09:47:10;;;;;;;115.03;103.32;;;4.70;99.90;;;;;;5122001;27;20166;-84
2021/11/28 09:49:37;;;;;;;124.47;112.05;;;4.80;73.30;;;;;;5122214;27;20181;-84
2021/11/28 09:52:06;;;;;;;120.60;106.88;;;4.70;1.00;;;;;;5139417;27;20154;-84
2021/11/28 09:54:41;;;;;;;113.03;101.05;;;4.80;99.90;;;;;;5137802;27;20169;-84
2021/11/28 09:57:14;;;;;;;103.45;82.78;;;4.80;99.90;;;;;;5142032;27;20156;-84
2021/11/28 09:59:42;;;;;;;93.45;67.70;;;4.80;1.00;;;;;;5160449;27;20177;-84
2021/11/28 10:04:37;;;;;;;93.95;61.38;;;4.80;17.40;;;;;;5097488;28;20211;-84
2021/11/28 10:07:02;;;;;;;91.70;57.83;;;4.80;1.00;;;;;;5098721;28;20159;-84
2021/11/28 10:09:28;;;;;;;94.57;66.03;;;4.70;99.90;;;;;;5064125;28;20203;-83
2021/11/28 10:12:23;;;;;;;92.15;62.80;;;4.70;99.90;;;;;;5097423;28;20793;-84
2021/11/28 10:15:08;;;;;;;89.65;56.13;;;4.70;99.90;;;;;;5098341;28;20581;-84
2021/11/28 10:17:43;;;;;;;93.03;63.42;;;4.70;95.50;;;;;;5079935;28;20243;-84
2021/11/28 10:20:30;;;;;;;98.43;65.65;;;4.70;5.90;;;;;;5098610;28;20191;-84
2021/11/28 10:23:02;;;;;;;93.55;66.50;;;4.70;1.00;;;;;;5098615;28;20610;-84
2021/11/28 10:25:29;;;;;;;98.18;73.57;;;4.70;1.00;;;;;;5099356;28;20233;-84
2021/11/28 10:28:11;;;;;;;102.35;78.82;;;4.70;1.00;;;;;;5098577;28;20197;-83
2021/11/28 10:30:51;;;;;;;97.30;63.53;;;4.80;1.00;;;;;;5079956;28;20210;-84
2021/11/28 10:33:23;;;;;;;94.25;64.47;;;4.80;1.00;;;;;;5099056;28;20190;-84
2021/11/28 10:36:14;;;;;;;95.20;64.72;;;4.80;1.00;;;;;;5098256;28;20626;-84
2021/11/28 10:38:44;;;;;;;101.13;73.45;;;4.90;99.90;;;;;;5086610;28;20198;-84
2021/11/28 10:41:26;;;;;;;135.10;122.20;;;4.80;99.90;;;;;;5099155;28;20155;-84
2021/11/28 10:43:52;;;;;;;117.28;105.15;;;4.80;99.90;;;;;;5081216;28;20159;-86
2021/11/28 10:46:30;;;;;;;129.43;116.47;;;4.90;1.00;;;;;;5099447;28;20174;-84
2021/11/28 10:49:07;;;;;;;103.00;87.65;;;5.00;99.90;;;;;;5095929;28;20697;-82
2021/11/28 10:51:33;;;;;;;99.93;62.22;;;5.00;99.90;;;;;;5077611;28;20159;-82
2021/11/28 10:53:59;;;;;;;92.18;60.75;;;5.10;99.90;;;;;;5095003;28;20160;-85
2021/11/28 10:56:25;;;;;;;99.90;64.60;;;5.00;99.90;;;;;;5095664;28;20159;-84
2021/11/28 10:58:52;;;;;;;92.13;54.60;;;5.00;99.90;;;;;;5096006;28;20191;-83
2021/11/28 11:01:18;;;;;;;102.47;62.38;;;5.00;99.90;;;;;;5096373;28;20148;-83
2021/11/28 11:03:49;;;;;;;85.77;37.37;;;5.00;99.90;;;;;;5095785;28;20201;-83
2021/11/28 11:06:21;;;;;;;80.20;30.50;;;5.10;99.90;;;;;;5096091;28;20151;-82
2021/11/28 11:08:53;;;;;;;85.82;35.97;;;5.20;99.90;;;;;;5094046;28;20226;-82
2021/11/28 11:11:20;;;;;;;81.40;32.78;;;5.10;99.90;;;;;;5095395;28;20150;-82
2021/11/28 11:14:04;;;;;;;83.80;33.50;;;5.10;99.90;;;;;;5095114;28;20639;-83
2021/11/28 11:16:40;;;;;;;85.60;26.23;;;5.10;99.90;;;;;;5095839;28;20187;-83
2021/11/28 11:19:29;;;;;;;80.57;24.52;;;5.20;99.90;;;;;;5095291;28;20186;-82
2021/11/28 11:22:11;;;;;;;92.25;35.40;;;5.20;99.90;;;;;;5095830;28;20170;-83
2021/11/28 11:24:45;;;;;;;85.07;32.60;;;5.20;99.90;;;;;;5094519;28;20174;-82
2021/11/28 11:27:17;;;;;;;82.80;28.35;;;5.20;99.20;;;;;;5095585;28;20155;-82
2021/11/28 11:29:48;;;;;;;83.53;29.25;;;5.20;99.90;;;;;;5093994;28;20195;-83
2021/11/28 11:32:22;;;;;;;84.35;29.73;;;5.30;99.90;;;;;;5093907;28;20174;-83
2021/11/28 11:34:59;;;;;;;82.65;28.00;;;5.20;92.90;;;;;;5095182;28;20156;-82
2021/11/28 11:37:27;;;;;;;85.47;27.77;;;5.20;99.90;;;;;;5094473;28;20159;-82
2021/11/28 11:39:56;;;;;;;80.63;24.45;;;5.30;99.90;;;;;;5096365;28;20179;-82
2021/11/28 11:42:24;;;;;;;82.53;30.85;;;5.40;99.90;;;;;;5096940;28;20170;-83
2021/11/28 11:44:50;;;;;;;88.15;37.63;;;5.40;92.10;;;;;;5097619;28;20526;-84
2021/11/28 11:47:18;;;;;;;86.68;37.90;;;5.40;86.90;;;;;;5079587;28;20163;-84
2021/11/28 11:49:45;;;;;;;88.20;38.42;;;5.40;67.80;;;;;;5098030;28;20187;-84
2021/11/28 11:52:15;;;;;;;88.88;36.15;;;5.50;55.70;;;;;;5084055;28;20703;-84
2021/11/28 11:54:46;;;;;;;83.43;30.70;;;5.60;47.70;;;;;;5084464;28;20166;-84
2021/11/28 11:57:38;;;;;;;86.75;38.90;;;5.50;31.10;;;;;;5084506;28;20522;-83
2021/11/28 12:00:27;;;;;;;84.60;41.15;;;5.40;32.50;;;;;;5101376;28;20211;-83
2021/11/28 12:02:54;;;;;;;86.45;41.05;;;5.50;36.50;;;;;;5102238;28;20202;-84
2021/11/28 12:05:26;;;;;;;85.35;42.55;;;5.40;39.60;;;;;;5102204;28;20653;-84
2021/11/28 12:08:00;;;;;;;90.68;44.53;;;5.40;55.90;;;;;;5102337;28;20194;-83
2021/11/28 12:10:36;;;;;;;86.85;38.88;;;5.40;47.10;;;;;;5102470;28;20186;-84
2021/11/28 12:13:25;;;;;;;85.32;35.88;;;5.50;57.90;;;;;;5101519;28;20185;-84
2021/11/28 12:15:52;;;;;;;90.28;36.92;;;5.30;39.40;;;;;;5101662;28;20179;-84
2021/11/28 12:18:33;;;;;;;86.05;31.70;;;5.30;58.70;;;;;;5084940;28;20163;-84
2021/11/28 12:21:03;;;;;;;86.75;32.58;;;5.40;92.10;;;;;;5101515;28;20164;-84
2021/11/28 12:24:11;;;;;;;83.13;29.67;;;5.40;72.70;;;;;;5101542;28;20164;-84
2021/11/28 12:26:42;;;;;;;85.15;26.77;;;5.40;69.30;;;;;;5077686;28;20179;-84
2021/11/28 12:29:13;;;;;;;88.45;31.45;;;5.30;58.60;;;;;;5100214;28;20201;-84
2021/11/28 12:31:49;;;;;;;87.82;28.85;;;5.30;67.20;;;;;;5100818;28;20182;-83
2021/11/28 12:34:25;;;;;;;91.00;33.10;;;5.30;80.40;;;;;;5101411;28;20245;-84
2021/11/28 12:36:59;;;;;;;91.32;36.47;;;5.30;72.00;;;;;;5101268;28;20147;-84
2021/11/28 12:39:25;;;;;;;89.25;36.45;;;5.30;69.10;;;;;;5082636;28;20203;-84
2021/11/28 12:42:14;;;;;;;86.18;31.13;;;5.40;72.60;;;;;;5100846;28;20166;-84
2021/11/28 12:44:49;;;;;;;93.18;32.45;;;5.30;56.50;;;;;;5100208;28;20160;-85
2021/11/28 12:47:14;;;;;;;92.28;31.30;;;5.20;68.20;;;;;;5100360;28;20527;-84